Time;durP1;ratioP1;P1;durP2;ratioP2;P2;SDS_P1;SDS_P2;PMS_P1;PMS_P2;Temp;Humidity;BMP_temperature;BMP_pressure;BME280_temperature;BME280_humidity;BME280_pressure;Samples;Min_cycle;Max_cycle;Signal;HPM_P1;HPM_P2
2022/08/19 00:01:59;;;;;;;16.17;14.38;;;;;;;20.17;67.11;97823.19;4867448;29;20052;-72
2022/08/19 00:04:32;;;;;;;20.05;14.27;;;;;;;20.16;67.12;97821.53;4868333;29;20049;-72
2022/08/19 00:06:59;;;;;;;14.48;12.98;;;;;;;20.17;67.42;97825.06;4868406;29;20072;-72
2022/08/19 00:09:26;;;;;;;14.88;13.48;;;;;;;20.17;67.38;97820.50;4869124;29;20041;-72
2022/08/19 00:11:55;;;;;;;16.45;13.95;;;;;;;20.17;67.06;97815.13;4878027;29;20589;-72
2022/08/19 00:14:23;;;;;;;15.25;13.63;;;;;;;20.14;66.93;97820.97;4869188;29;20044;-72
2022/08/19 00:16:53;;;;;;;15.30;13.63;;;;;;;20.09;67.77;97830.75;4874466;29;20525;-72
2022/08/19 00:19:21;;;;;;;15.85;14.25;;;;;;;20.06;67.70;97837.41;4863805;29;20080;-72
2022/08/19 00:21:48;;;;;;;14.77;13.27;;;;;;;20.03;67.68;97835.19;4872228;29;20049;-72
2022/08/19 00:24:15;;;;;;;16.15;14.35;;;;;;;20.02;68.59;97841.59;4866149;29;20052;-72
2022/08/19 00:26:42;;;;;;;18.33;15.60;;;;;;;20.00;68.10;97830.25;4874227;29;20056;-72
2022/08/19 00:29:11;;;;;;;17.58;14.55;;;;;;;20.00;67.81;97834.81;4871036;29;20052;-72
2022/08/19 00:31:39;;;;;;;18.23;14.98;;;;;;;20.00;68.00;97829.44;4874487;29;20080;-72
2022/08/19 00:34:06;;;;;;;16.15;14.32;;;;;;;19.97;68.28;97825.34;4862847;29;20056;-72
2022/08/19 00:36:33;;;;;;;17.23;15.27;;;;;;;19.97;68.94;97819.19;4861662;29;20065;-72
2022/08/19 00:39:00;;;;;;;17.83;15.00;;;;;;;19.93;68.67;97818.78;4862647;29;20049;-72
2022/08/19 00:41:27;;;;;;;16.65;14.10;;;;;;;19.91;68.69;97807.50;4865333;29;20067;-72
2022/08/19 00:44:02;;;;;;;20.17;15.98;;;;;;;19.87;68.64;97804.44;4878199;29;20060;-72
2022/08/19 00:46:31;;;;;;;18.73;16.02;;;;;;;19.89;69.29;97807.72;4875017;29;20060;-73
2022/08/19 00:48:59;;;;;;;21.65;16.27;;;;;;;19.91;69.24;97812.88;4866859;29;20575;-72
2022/08/19 00:51:27;;;;;;;19.17;15.98;;;;;;;19.90;69.35;97819.25;4866277;29;20070;-72
2022/08/19 00:53:55;;;;;;;17.67;14.73;;;;;;;19.85;69.50;97817.28;4900604;29;20048;-72
2022/08/19 00:56:23;;;;;;;19.35;16.02;;;;;;;19.86;68.96;97816.22;4893277;29;20144;-72
2022/08/19 00:58:49;;;;;;;18.10;16.13;;;;;;;19.85;69.71;97819.13;4868421;29;20053;-72
2022/08/19 01:01:16;;;;;;;18.02;15.90;;;;;;;19.85;69.47;97822.66;4874721;29;20398;-72
2022/08/19 01:03:43;;;;;;;21.38;14.90;;;;;;;19.86;69.65;97812.72;4867879;29;20149;-72
2022/08/19 01:06:25;;;;;;;17.02;15.23;;;;;;;19.84;69.67;97815.63;4870524;29;20053;-72
2022/08/19 01:08:54;;;;;;;20.40;16.02;;;;;;;19.82;69.70;97816.91;4866316;29;20048;-72
2022/08/19 01:11:20;;;;;;;16.90;15.00;;;;;;;19.79;69.75;97820.06;4869485;29;20108;-72
2022/08/19 01:13:48;;;;;;;19.73;16.85;;;;;;;19.78;70.01;97816.56;4895914;29;20072;-72
2022/08/19 01:16:18;;;;;;;18.80;15.82;;;;;;;19.78;70.01;97819.25;4862168;29;20465;-72
2022/08/19 01:18:44;;;;;;;18.98;15.55;;;;;;;19.76;70.01;97821.31;4866879;29;20046;-72
2022/08/19 01:21:43;;;;;;;20.35;15.25;;;;;;;19.72;69.84;97820.13;4879306;29;20053;-72
2022/08/19 01:24:10;;;;;;;18.17;14.25;;;;;;;19.64;70.17;97821.28;4869385;29;20048;-72
2022/08/19 01:26:42;;;;;;;16.55;14.73;;;;;;;19.62;70.30;97817.97;4870604;29;20060;-72
2022/08/19 01:29:09;;;;;;;;;;;;;;;19.57;70.52;97814.34;4866028;29;20048;-72
2022/08/19 01:31:36;;;;;;;18.23;15.68;;;;;;;19.53;70.49;97822.00;4865774;29;19939;-72
2022/08/19 01:34:03;;;;;;;19.35;17.05;;;;;;;19.57;70.55;97808.97;4881410;29;20068;-72
2022/08/19 01:36:34;;;;;;;18.00;15.30;;;;;;;19.56;70.85;97812.69;4872647;29;20041;-72
2022/08/19 01:39:04;;;;;;;21.25;16.25;;;;;;;19.57;70.55;97798.25;4870043;29;20055;-72
2022/08/19 01:41:31;;;;;;;19.80;14.85;;;;;;;19.56;70.71;97796.59;4863188;29;20072;-72
2022/08/19 01:43:58;;;;;;;17.67;15.88;;;;;;;19.55;71.11;97806.50;4861860;29;20056;-72
2022/08/19 01:46:46;;;;;;;18.77;15.35;;;;;;;19.53;71.09;97805.91;4870481;29;20132;-72
2022/08/19 01:49:13;;;;;;;21.08;15.15;;;;;;;19.52;71.01;97815.84;4869753;29;20045;-72
2022/08/19 01:51:40;;;;;;;17.30;15.45;;;;;;;19.51;70.81;97811.53;4868762;29;20462;-72
2022/08/19 01:54:09;;;;;;;18.00;16.00;;;;;;;19.55;70.95;97808.38;4870414;29;20045;-72
2022/08/19 01:56:35;;;;;;;17.50;15.23;;;;;;;19.56;70.30;97808.13;4874430;29;20424;-72
2022/08/19 01:59:06;;;;;;;17.88;16.02;;;;;;;19.57;70.91;97801.75;4872642;29;20064;-72
2022/08/19 02:01:34;;;;;;;22.15;15.88;;;;;;;19.59;70.83;97804.19;4897455;29;20046;-72
2022/08/19 02:04:01;;;;;;;17.55;15.73;;;;;;;19.62;70.14;97799.19;4871768;29;20083;-72
2022/08/19 02:06:29;;;;;;;18.77;16.02;;;;;;;19.62;70.34;97801.06;4865231;29;20056;-72
2022/08/19 02:08:55;;;;;;;17.67;15.77;;;;;;;19.59;70.01;97813.06;4865003;29;20049;-72
2022/08/19 02:11:26;;;;;;;19.77;16.00;;;;;;;19.59;70.46;97818.44;4880441;29;20052;-72
2022/08/19 02:13:54;;;;;;;20.98;16.58;;;;;;;19.55;70.76;97822.63;4867752;29;20045;-73
2022/08/19 02:16:21;;;;;;;19.08;16.30;;;;;;;19.56;70.89;97812.69;4857889;29;20052;-72
2022/08/19 02:18:48;;;;;;;20.20;17.15;;;;;;;19.56;70.73;97810.81;4862282;29;20048;-72
2022/08/19 02:21:17;;;;;;;21.15;16.75;;;;;;;19.57;70.70;97808.97;4859090;29;20139;-72
2022/08/19 02:23:43;;;;;;;19.45;16.77;;;;;;;19.55;70.65;97822.63;4863587;29;20424;-72
2022/08/19 02:26:10;;;;;;;22.30;17.20;;;;;;;19.53;70.82;97814.78;4873287;29;20064;-72
2022/08/19 02:28:37;;;;;;;22.23;17.85;;;;;;;19.55;70.83;97819.13;4868120;29;20059;-72
2022/08/19 02:31:09;;;;;;;24.33;19.00;;;;;;;19.51;69.97;97824.13;4864986;29;20053;-72
2022/08/19 02:33:36;;;;;;;21.08;16.90;;;;;;;19.50;70.74;97825.16;4862260;29;20041;-72
2022/08/19 02:36:04;;;;;;;21.65;17.70;;;;;;;19.48;70.98;97827.25;4864122;29;20560;-72
2022/08/19 02:38:31;;;;;;;26.00;19.30;;;;;;;19.48;70.67;97828.09;4865514;29;20057;-72
2022/08/19 02:41:07;;;;;;;22.48;18.35;;;;;;;19.48;70.75;97816.50;4872070;29;20049;-72
2022/08/19 02:43:36;;;;;;;23.13;18.67;;;;;;;19.48;70.81;97819.19;4866083;29;20048;-72
2022/08/19 02:46:26;;;;;;;28.23;20.77;;;;;;;19.44;71.15;97815.34;4870965;29;20176;-72
2022/08/19 02:48:56;;;;;;;25.92;21.25;;;;;;;19.42;71.47;97814.75;4860290;29;20047;-72
2022/08/19 02:51:25;;;;;;;26.17;19.02;;;;;;;19.41;71.34;97815.78;4866547;29;20067;-72
2022/08/19 02:53:52;;;;;;;26.98;19.80;;;;;;;19.42;70.70;97820.91;4865185;29;20057;-72
2022/08/19 02:56:20;;;;;;;27.80;20.35;;;;;;;19.40;71.31;97812.28;4867450;29;20049;-72
2022/08/19 02:58:48;;;;;;;27.35;20.42;;;;;;;19.37;71.61;97809.22;4870656;29;20412;-72
2022/08/19 03:01:26;;;;;;;22.85;18.65;;;;;;;19.36;71.56;97802.25;4874555;29;20041;-72
2022/08/19 03:03:55;;;;;;;25.50;20.02;;;;;;;19.36;71.32;97800.38;4869674;29;20060;-72
2022/08/19 03:06:22;;;;;;;27.58;21.58;;;;;;;19.30;71.36;97794.06;4862397;29;20052;-72
2022/08/19 03:08:49;;;;;;;29.15;20.95;;;;;;;19.32;71.53;97807.22;4867063;29;20045;-72
2022/08/19 03:11:22;;;;;;;26.33;20.48;;;;;;;19.32;71.45;97811.78;4863238;29;20097;-72
2022/08/19 03:13:50;;;;;;;25.73;20.27;;;;;;;19.31;71.73;97810.97;4869625;29;20140;-72
2022/08/19 03:16:24;;;;;;;27.52;20.90;;;;;;;19.29;71.43;97816.53;4880420;29;20128;-72
2022/08/19 03:18:52;;;;;;;29.35;21.20;;;;;;;19.26;71.87;97817.00;4863465;29;20057;-72
2022/08/19 03:21:24;;;;;;;24.80;20.00;;;;;;;19.24;72.18;97821.75;4864526;29;20054;-72
2022/08/19 03:23:54;;;;;;;26.60;21.02;;;;;;;19.22;72.00;97823.88;4864884;29;20408;-72
2022/08/19 03:26:20;;;;;;;25.30;19.92;;;;;;;19.21;72.26;97822.22;4860237;29;20060;-72
2022/08/19 03:28:49;;;;;;;26.95;21.02;;;;;;;19.19;72.62;97821.59;4864014;29;20049;-72
2022/08/19 03:31:24;;;;;;;26.35;20.63;;;;;;;19.18;71.67;97832.56;4870386;29;20124;-72
2022/08/19 03:34:14;;;;;;;29.50;20.75;;;;;;;19.17;72.32;97836.28;4869172;29;20053;-72
2022/08/19 03:36:40;;;;;;;24.58;18.60;;;;;;;19.16;72.60;97827.41;4863974;29;20394;-72
2022/08/19 03:39:08;;;;;;;24.27;18.55;;;;;;;19.16;72.49;97832.78;4864995;29;20139;-72
2022/08/19 03:41:40;;;;;;;25.38;20.52;;;;;;;19.17;71.94;97826.41;4867694;29;20166;-72
2022/08/19 03:44:13;;;;;;;29.02;22.23;;;;;;;19.17;72.46;97830.91;4862990;29;20065;-72
2022/08/19 03:46:43;;;;;;;29.67;21.83;;;;;;;19.16;72.43;97830.09;4868070;29;20048;-72
2022/08/19 03:49:10;;;;;;;28.70;21.13;;;;;;;19.12;72.51;97823.56;4863053;29;20041;-72
2022/08/19 03:51:41;;;;;;;29.13;21.58;;;;;;;19.14;72.25;97826.00;4870436;29;20169;-72
2022/08/19 03:54:11;;;;;;;29.88;22.05;;;;;;;19.10;72.58;97825.66;4873822;29;20052;-72
2022/08/19 03:56:39;;;;;;;31.13;22.58;;;;;;;19.08;72.61;97830.41;4883913;29;20045;-72
2022/08/19 03:59:08;;;;;;;26.10;21.30;;;;;;;19.07;72.86;97834.13;4866605;29;22650;-72
2022/08/19 04:01:35;;;;;;;27.63;21.23;;;;;;;19.07;73.17;97839.50;4858304;29;20054;-73
2022/08/19 04:04:02;;;;;;;27.65;21.23;;;;;;;19.08;73.08;97838.44;4863392;29;20053;-72
2022/08/19 04:06:33;;;;;;;29.10;21.95;;;;;;;19.06;73.24;97835.16;4871489;29;20740;-72
2022/08/19 04:09:03;;;;;;;26.70;20.77;;;;;;;19.03;73.14;97827.56;4882172;29;20045;-72
2022/08/19 04:11:33;;;;;;;25.65;21.17;;;;;;;18.98;73.38;97833.59;4869504;29;20533;-72
2022/08/19 04:14:15;;;;;;;28.38;23.40;;;;;;;18.97;73.26;97826.59;4867095;29;20496;-72
2022/08/19 04:16:44;;;;;;;28.40;22.60;;;;;;;18.96;73.34;97826.84;4864268;29;20562;-72
2022/08/19 04:19:11;;;;;;;26.50;21.50;;;;;;;18.96;73.31;97821.50;4870535;29;20084;-72
2022/08/19 04:21:38;;;;;;;27.95;22.15;;;;;;;18.98;73.52;97830.09;4874177;29;20045;-72
2022/08/19 04:24:05;;;;;;;28.20;22.50;;;;;;;19.00;73.37;97825.34;4868116;29;20524;-72
2022/08/19 04:26:35;;;;;;;28.95;23.15;;;;;;;18.96;73.48;97824.16;4863451;29;20084;-72
2022/08/19 04:29:09;;;;;;;29.55;22.75;;;;;;;18.96;73.73;97826.84;4864879;29;20081;-72
2022/08/19 04:31:40;;;;;;;28.83;24.15;;;;;;;18.94;73.16;97821.69;4872658;29;20112;-72
2022/08/19 04:34:12;;;;;;;31.10;23.75;;;;;;;18.97;73.09;97820.44;4867037;29;20052;-72
2022/08/19 04:36:41;;;;;;;27.48;23.48;;;;;;;18.96;73.39;97821.50;4866223;29;20394;-72
2022/08/19 04:39:10;;;;;;;29.13;23.58;;;;;;;18.99;73.01;97818.34;4866033;29;20386;-72
2022/08/19 04:44:22;;;;;;;29.33;23.25;;;;;;;19.03;73.05;97833.75;4866120;29;20518;-72
2022/08/19 04:46:50;;;;;;;33.85;23.55;;;;;;;19.04;73.46;97829.22;4863079;29;20060;-72
2022/08/19 04:49:21;;;;;;;30.33;24.27;;;;;;;19.04;73.26;97831.91;4865941;29;20056;-72
2022/08/19 04:51:49;;;;;;;34.50;24.85;;;;;;;19.05;73.24;97825.50;4870724;29;20049;-72
2022/08/19 04:54:17;;;;;;;30.02;24.65;;;;;;;19.05;72.63;97831.66;4864304;29;20042;-72
2022/08/19 04:57:05;;;;;;;32.70;23.88;;;;;;;19.10;71.97;97838.25;4866288;29;20053;-72
2022/08/19 04:59:33;;;;;;;30.50;24.90;;;;;;;19.03;72.50;97840.97;4874831;29;20136;-72
2022/08/19 05:02:00;;;;;;;34.78;26.02;;;;;;;19.01;72.49;97840.38;4861973;29;20148;-72
2022/08/19 05:04:31;;;;;;;30.50;24.95;;;;;;;19.02;72.70;97834.00;4867209;29;20059;-72
2022/08/19 05:06:59;;;;;;;31.50;24.73;;;;;;;19.06;72.87;97846.72;4862651;29;20068;-72
2022/08/19 05:09:27;;;;;;;32.35;25.90;;;;;;;19.06;72.25;97846.72;4868645;29;20505;-72
2022/08/19 05:12:15;;;;;;;32.00;24.73;;;;;;;19.12;72.29;97845.00;4876493;29;20049;-72
2022/08/19 05:14:42;;;;;;;32.53;26.08;;;;;;;19.13;72.08;97846.66;4877756;29;20144;-72
2022/08/19 05:17:08;;;;;;;32.88;26.17;;;;;;;19.11;71.81;97856.75;4867365;29;20042;-72
2022/08/19 05:22:40;;;;;;;31.38;24.85;;;;;;;19.16;71.86;97873.00;4870793;29;20053;-72
2022/08/19 05:25:12;;;;;;;32.88;25.75;;;;;;;19.18;71.40;97876.28;4870332;29;20049;-72
2022/08/19 05:27:39;;;;;;;;;;;;;;;19.20;72.24;97892.97;4869341;29;20049;-72
2022/08/19 05:30:07;;;;;;;32.00;24.13;;;;;;;19.21;72.14;97897.28;4867311;29;19924;-72
2022/08/19 05:32:33;;;;;;;28.48;23.88;;;;;;;19.21;71.95;97908.00;4865638;29;20064;-72
2022/08/19 05:35:00;;;;;;;30.15;24.95;;;;;;;19.22;71.36;97912.34;4871256;29;20128;-72
2022/08/19 05:37:27;;;;;;;27.67;22.73;;;;;;;19.24;72.08;97918.28;4864078;29;20048;-72
2022/08/19 05:39:54;;;;;;;30.40;24.27;;;;;;;19.23;72.20;97922.03;4869699;29;20222;-72
2022/08/19 05:42:22;;;;;;;35.22;25.13;;;;;;;19.24;72.18;97922.84;4869284;29;20041;-72
2022/08/19 05:44:50;;;;;;;30.95;24.55;;;;;;;19.23;71.98;97930.06;4873288;29;20064;-72
2022/08/19 05:47:19;;;;;;;27.35;22.65;;;;;;;19.25;72.42;97930.69;4863739;29;20056;-72
2022/08/19 05:49:46;;;;;;;35.35;26.52;;;;;;;19.24;72.20;97925.53;4881132;29;20041;-72
2022/08/19 05:52:15;;;;;;;32.03;24.77;;;;;;;19.23;71.98;97930.06;4865897;29;20535;-72
2022/08/19 05:54:47;;;;;;;29.95;24.15;;;;;;;19.25;72.26;97928.00;4862080;29;20105;-72
2022/08/19 05:57:17;;;;;;;;;;;;;;;19.29;72.23;97923.81;4859500;29;20060;-72
2022/08/19 05:59:46;;;;;;;31.95;24.20;;;;;;;19.39;71.19;97931.34;4872408;29;19924;-72
2022/08/19 06:02:13;;;;;;;28.95;24.00;;;;;;;19.39;71.72;97927.84;4867940;29;20057;-72
2022/08/19 06:04:42;;;;;;;31.65;25.23;;;;;;;19.35;71.72;97930.16;4876687;29;20048;-72
2022/08/19 06:07:09;;;;;;;34.60;25.77;;;;;;;19.37;70.70;97924.56;4868502;29;20056;-72
2022/08/19 06:09:38;;;;;;;34.42;25.08;;;;;;;19.36;71.54;97928.31;4865973;29;20440;-72
2022/08/19 06:12:06;;;;;;;33.10;26.42;;;;;;;19.36;71.78;97928.31;4864555;29;20049;-72
2022/08/19 06:14:35;;;;;;;32.88;25.02;;;;;;;19.33;71.49;97934.94;4866678;29;20425;-72
2022/08/19 06:17:07;;;;;;;31.63;24.17;;;;;;;19.42;71.34;97932.78;4870181;29;20097;-72
2022/08/19 06:19:34;;;;;;;29.40;25.13;;;;;;;19.36;71.15;97936.34;4869023;29;20040;-72
2022/08/19 06:22:07;;;;;;;32.70;26.58;;;;;;;19.35;71.75;97935.50;4866593;29;20049;-72
2022/08/19 06:24:35;;;;;;;32.83;24.98;;;;;;;19.39;72.37;97927.84;4866818;29;20473;-72
2022/08/19 06:27:05;;;;;;;30.45;24.77;;;;;;;19.45;72.29;97930.44;4864577;29;20385;-72
2022/08/19 06:29:32;;;;;;;30.50;25.08;;;;;;;19.48;72.21;97927.34;4867850;29;20062;-72
2022/08/19 06:32:00;;;;;;;31.92;26.50;;;;;;;19.46;72.33;97932.09;4863126;29;20057;-72
2022/08/19 06:34:28;;;;;;;28.95;25.67;;;;;;;19.45;72.73;97926.94;4873006;29;20072;-72
2022/08/19 06:36:55;;;;;;;35.45;26.55;;;;;;;19.44;72.66;97934.19;4871964;29;20051;-72
2022/08/19 06:39:28;;;;;;;30.88;25.98;;;;;;;19.45;72.76;97930.44;4869305;29;20048;-72
2022/08/19 06:41:57;;;;;;;;;;;;;;;19.42;72.81;97935.44;4864756;29;20082;-72
2022/08/19 06:44:35;;;;;;;33.92;26.27;;;;;;;19.31;72.76;97937.00;4891100;29;19948;-73
2022/08/19 06:47:11;;;;;;;36.35;27.50;;;;;;;19.27;73.51;97933.13;4861236;29;20057;-72
2022/08/19 06:49:41;;;;;;;32.95;27.63;;;;;;;19.29;73.61;97934.53;4861776;29;20049;-73
2022/08/19 06:52:08;;;;;;;31.23;26.58;;;;;;;19.36;73.66;97933.66;4871819;29;20063;-72
2022/08/19 06:54:40;;;;;;;37.80;28.75;;;;;;;19.36;73.53;97931.00;4871685;29;20061;-72
2022/08/19 06:57:23;;;;;;;32.65;26.52;;;;;;;19.43;72.93;97931.72;4868799;29;20049;-72
2022/08/19 06:59:50;;;;;;;33.17;26.70;;;;;;;19.46;72.63;97940.16;4860250;29;20049;-72
2022/08/19 07:02:17;;;;;;;35.42;28.25;;;;;;;19.59;72.25;97931.16;4866101;29;20555;-72
2022/08/19 07:04:49;;;;;;;30.85;27.13;;;;;;;19.66;71.60;97936.41;4865537;29;20072;-72
2022/08/19 07:07:19;;;;;;;32.10;26.10;;;;;;;19.83;71.13;97940.16;4869288;29;20044;-72
2022/08/19 07:09:48;;;;;;;34.08;26.60;;;;;;;20.00;69.69;97940.34;4865732;29;20453;-72
2022/08/19 07:12:24;;;;;;;30.65;25.65;;;;;;;20.15;70.14;97938.09;4868707;29;20139;-72
2022/08/19 07:14:53;;;;;;;31.23;25.63;;;;;;;20.17;69.41;97937.88;4864510;29;20057;-72
2022/08/19 07:17:20;;;;;;;32.25;26.42;;;;;;;20.24;69.75;97948.50;4896056;29;20053;-72
2022/08/19 07:19:47;;;;;;;29.23;25.55;;;;;;;20.09;69.66;97952.44;4864964;29;20102;-72
2022/08/19 07:22:14;;;;;;;36.63;25.77;;;;;;;20.19;69.62;97949.19;4866076;29;20053;-72
2022/08/19 07:24:42;;;;;;;32.55;26.70;;;;;;;20.07;69.89;97946.47;4862700;29;20121;-72
2022/08/19 07:27:18;;;;;;;32.30;26.35;;;;;;;20.08;70.01;97950.78;4871422;29;20045;-72
2022/08/19 07:29:54;;;;;;;26.77;23.15;;;;;;;20.32;69.25;97945.50;4874004;29;20056;-72
2022/08/19 07:32:26;;;;;;;31.70;26.02;;;;;;;20.43;69.76;97938.50;4868070;29;20076;-72
2022/08/19 07:34:53;;;;;;;28.38;24.38;;;;;;;20.54;68.39;97938.59;4865640;29;20081;-72
2022/08/19 07:37:19;;;;;;;31.50;23.85;;;;;;;20.53;68.95;97944.16;4861385;29;20053;-72
2022/08/19 07:39:46;;;;;;;27.80;23.27;;;;;;;20.66;68.54;97948.53;4864851;29;20052;-72
2022/08/19 07:42:14;;;;;;;28.50;24.27;;;;;;;20.69;68.77;97951.56;4892830;29;20052;-72
2022/08/19 07:44:41;;;;;;;27.35;23.08;;;;;;;20.52;68.59;97961.34;4878157;29;20056;-72
2022/08/19 07:47:17;;;;;;;29.80;24.00;;;;;;;20.43;69.56;97950.06;4878709;29;20067;-72
2022/08/19 07:50:07;;;;;;;29.80;24.45;;;;;;;20.17;69.39;97959.34;4871626;29;20052;-72
2022/08/19 07:52:35;;;;;;;31.75;23.55;;;;;;;20.16;70.21;97958.50;4870468;29;20056;-72
2022/08/19 07:55:04;;;;;;;30.08;22.55;;;;;;;20.25;69.87;97961.72;4864168;29;20049;-72
2022/08/19 07:57:30;;;;;;;27.48;23.17;;;;;;;20.12;70.39;97965.41;4872245;29;20454;-72
2022/08/19 07:59:58;;;;;;;28.00;21.85;;;;;;;20.10;70.84;97967.47;4878608;29;20527;-72
2022/08/19 08:02:25;;;;;;;27.60;21.63;;;;;;;19.94;70.92;97954.69;4903143;29;20056;-72
2022/08/19 08:10:22;;;;;;;26.30;21.38;;;;;;;19.72;73.22;97957.84;4874525;29;20052;-72
2022/08/19 08:12:50;;;;;;;25.60;19.90;;;;;;;19.70;72.84;97967.97;4871491;29;20060;-72
2022/08/19 08:15:38;;;;;;;24.92;20.83;;;;;;;19.64;73.17;97965.34;4874718;29;20040;-72
2022/08/19 08:18:10;;;;;;;27.25;19.73;;;;;;;19.63;72.76;97969.06;4872131;29;20713;-72
2022/08/19 08:20:36;;;;;;;26.27;20.30;;;;;;;19.76;72.07;97973.50;4871297;29;20044;-72
2022/08/19 08:25:49;;;;;;;22.80;19.17;;;;;;;19.89;72.06;97965.28;4870024;29;20056;-72
2022/08/19 08:28:16;;;;;;;24.85;19.65;;;;;;;20.04;71.20;97967.59;4873575;29;20602;-72
2022/08/19 08:30:47;;;;;;;29.15;19.90;;;;;;;20.14;70.50;97974.06;4868851;29;20114;-72
2022/08/19 08:33:23;;;;;;;24.17;19.48;;;;;;;20.17;70.34;97978.16;4870537;29;20092;-72
2022/08/19 08:36:07;;;;;;;27.48;19.92;;;;;;;20.18;70.64;97972.53;4869461;29;20072;-72
2022/08/19 08:38:34;;;;;;;23.90;19.88;;;;;;;20.34;69.79;97973.75;4871361;29;20072;-72
2022/08/19 08:41:19;;;;;;;26.08;21.15;;;;;;;20.46;70.41;97967.59;4886479;29;20108;-72
2022/08/19 08:43:48;;;;;;;26.10;20.58;;;;;;;20.45;71.22;97965.97;4868525;29;20049;-72
2022/08/19 08:46:39;;;;;;;24.15;20.77;;;;;;;20.36;71.78;97966.31;4899001;29;20044;-72
2022/08/19 08:49:21;;;;;;;22.55;20.10;;;;;;;20.27;72.60;97962.28;4901373;29;20136;-72
2022/08/19 08:51:51;;;;;;;28.42;20.92;;;;;;;20.07;73.82;97959.06;4901794;29;20564;-72
2022/08/19 08:54:38;;;;;;;26.75;21.35;;;;;;;19.85;75.40;97962.25;4873625;29;20601;-72
2022/08/19 08:57:12;;;;;;;33.33;22.85;;;;;;;19.57;76.58;97962.75;4894151;29;20048;-72
2022/08/19 08:59:41;;;;;;;26.90;22.15;;;;;;;19.49;77.78;97971.91;4901129;29;20099;-73
2022/08/19 09:02:09;;;;;;;29.23;23.33;;;;;;;19.46;77.78;97968.84;4873102;29;20053;-73
2022/08/19 09:04:37;;;;;;;26.52;23.67;;;;;;;19.41;78.50;97971.38;4872111;29;20036;-73
2022/08/19 09:07:29;;;;;;;27.90;23.50;;;;;;;19.40;80.18;97975.09;4870886;29;20060;-73
2022/08/19 09:10:10;;;;;;;30.75;24.75;;;;;;;19.32;79.66;97978.88;4895454;29;20045;-74
2022/08/19 09:12:57;;;;;;;33.38;25.63;;;;;;;19.27;80.54;97979.56;4898798;29;20060;-73
2022/08/19 09:15:32;;;;;;;32.53;26.58;;;;;;;19.13;79.93;97978.03;4897453;29;20048;-74
2022/08/19 09:18:04;;;;;;;30.23;25.40;;;;;;;19.08;80.60;97981.34;4894300;29;20059;-74
2022/08/19 09:20:32;;;;;;;34.17;26.92;;;;;;;19.03;80.47;97972.34;4869636;29;20127;-74
2022/08/19 09:22:59;;;;;;;31.02;26.80;;;;;;;19.02;80.43;97989.47;4901703;29;20454;-74
2022/08/19 09:25:26;;;;;;;33.28;26.15;;;;;;;19.03;81.46;97991.91;4870566;29;20073;-74
2022/08/19 09:27:56;;;;;;;34.35;27.02;;;;;;;19.00;81.23;97991.56;4868616;29;20188;-74
2022/08/19 09:30:33;;;;;;;37.92;27.15;;;;;;;19.02;82.37;97989.47;4872269;29;20054;-74
2022/08/19 09:33:00;;;;;;;38.28;27.63;;;;;;;18.95;82.84;97991.38;4867709;29;20060;-74
2022/08/19 09:35:29;;;;;;;33.00;27.42;;;;;;;18.91;82.51;97982.16;4865989;29;20060;-74
2022/08/19 09:37:57;;;;;;;34.70;27.92;;;;;;;18.79;82.48;97982.84;4885844;29;20037;-74
2022/08/19 09:40:27;;;;;;;36.38;29.15;;;;;;;18.79;84.16;97980.16;4871098;29;20394;-73
2022/08/19 09:42:57;;;;;;;39.20;29.20;;;;;;;18.82;85.00;97984.25;4868521;29;20084;-73
2022/08/19 09:45:24;;;;;;;38.92;30.17;;;;;;;18.82;85.17;97984.25;4867221;29;20059;-73
2022/08/19 09:47:52;;;;;;;39.00;28.95;;;;;;;18.82;85.49;97985.09;4863152;29;20080;-73
2022/08/19 09:50:21;;;;;;;38.70;30.15;;;;;;;18.84;85.41;97988.38;4862907;29;20053;-73
2022/08/19 09:52:48;;;;;;;41.40;30.63;;;;;;;18.86;86.18;97990.84;4873851;29;20055;-73
2022/08/19 09:55:23;;;;;;;40.67;29.45;;;;;;;18.91;86.62;97998.25;4878846;29;20055;-73
2022/08/19 09:57:56;;;;;;;39.97;30.17;;;;;;;18.88;87.03;97996.81;4878014;29;20048;-73
2022/08/19 10:00:23;;;;;;;42.22;31.77;;;;;;;18.87;87.25;98000.50;4876381;29;20033;-73
2022/08/19 10:02:50;;;;;;;39.65;32.20;;;;;;;18.83;87.47;97988.59;4876891;29;20045;-72
2022/08/19 10:08:08;;;;;;;39.17;30.27;;;;;;;18.83;87.55;97989.41;4876004;29;20044;-73
2022/08/19 10:10:43;;;;;;;44.70;32.63;;;;;;;18.89;87.96;97989.59;4877546;29;20045;-72
2022/08/19 10:13:15;;;;;;;40.85;31.27;;;;;;;18.89;87.94;97993.09;4904675;29;20329;-71
2022/08/19 10:15:42;;;;;;;42.80;32.03;;;;;;;18.89;87.97;97987.72;4875672;29;20065;-71
2022/08/19 10:18:15;;;;;;;43.38;32.28;;;;;;;19.00;88.33;97978.97;4876753;29;20072;-71
2022/08/19 10:20:43;;;;;;;44.78;32.45;;;;;;;19.06;87.58;97996.88;4877518;29;20040;-71
2022/08/19 10:23:09;;;;;;;42.38;33.50;;;;;;;19.11;87.87;97985.47;4880332;29;20041;-71
2022/08/19 10:25:37;;;;;;;43.95;32.78;;;;;;;19.12;87.81;97979.06;4883564;29;20047;-71
2022/08/19 10:28:05;;;;;;;42.50;31.65;;;;;;;19.07;87.94;97976.25;4890682;29;20120;-72
2022/08/19 10:30:36;;;;;;;39.63;30.95;;;;;;;19.02;88.13;97976.06;4882066;29;20115;-71
2022/08/19 10:33:03;;;;;;;40.35;30.90;;;;;;;18.96;88.26;97971.59;4882980;29;20404;-71
2022/08/19 10:35:37;;;;;;;40.13;31.05;;;;;;;18.88;88.31;97979.88;4888695;29;20045;-71
2022/08/19 10:38:22;;;;;;;40.67;30.70;;;;;;;18.82;88.50;97971.69;4881764;29;20101;-71
2022/08/19 10:40:58;;;;;;;42.28;31.48;;;;;;;18.79;88.79;97974.81;4876016;29;20413;-71
2022/08/19 10:43:24;;;;;;;49.90;30.27;;;;;;;18.80;88.36;97964.91;4875113;29;20041;-72
2022/08/19 10:45:54;;;;;;;36.50;30.10;;;;;;;18.90;88.73;97972.44;4876191;29;20473;-71
2022/08/19 10:48:21;;;;;;;43.90;31.80;;;;;;;18.96;88.59;97974.28;4879762;29;20048;-71
2022/08/19 10:53:33;;;;;;;38.08;28.73;;;;;;;19.22;86.51;97974.03;4873666;29;20825;-73
2022/08/19 10:58:46;;;;;;;40.45;29.45;;;;;;;19.58;87.17;97975.09;4873699;29;20045;-73
2022/08/19 11:01:13;;;;;;;34.47;28.38;;;;;;;19.77;86.68;97977.81;4869523;29;20052;-73
2022/08/19 11:03:40;;;;;;;34.17;27.95;;;;;;;19.80;85.92;97978.19;4876483;29;20510;-73
2022/08/19 11:06:08;;;;;;;28.35;25.15;;;;;;;19.72;86.05;97970.44;4876477;29;20087;-73
2022/08/19 11:08:37;;;;;;;30.67;26.92;;;;;;;19.67;86.17;97976.50;4876363;29;20041;-73
2022/08/19 11:11:05;;;;;;;32.85;25.65;;;;;;;19.78;85.76;97971.41;4887024;29;20048;-73
2022/08/19 11:13:35;;;;;;;31.65;25.90;;;;;;;19.86;85.42;97965.75;4875378;29;20060;-73
2022/08/19 11:16:10;;;;;;;28.77;25.05;;;;;;;19.92;85.54;97970.19;4875615;29;20602;-73
2022/08/19 11:18:38;;;;;;;29.40;24.25;;;;;;;20.18;85.78;97977.09;4875742;29;20044;-73
2022/08/19 11:21:10;;;;;;;28.60;23.95;;;;;;;20.51;85.14;97970.41;4876205;29;20412;-73
2022/08/19 11:23:37;;;;;;;31.52;24.77;;;;;;;20.79;84.63;97972.50;4878117;29;20753;-73
2022/08/19 11:26:04;;;;;;;27.13;22.23;;;;;;;20.77;82.34;97959.31;4876415;29;20049;-73
2022/08/19 11:28:30;;;;;;;22.58;19.05;;;;;;;20.80;81.22;97963.38;4878707;29;20123;-73
2022/08/19 11:30:57;;;;;;;27.25;21.58;;;;;;;20.86;82.83;97961.66;4874871;29;20041;-73
2022/08/19 11:33:26;;;;;;;25.17;20.77;;;;;;;21.03;83.27;97959.91;4875941;29;20041;-73
2022/08/19 11:35:53;;;;;;;21.98;18.85;;;;;;;20.98;81.91;97960.59;4875515;29;20080;-73
2022/08/19 11:38:20;;;;;;;20.63;18.48;;;;;;;20.96;82.65;97967.28;4876727;29;20053;-73
2022/08/19 11:41:00;;;;;;;25.08;19.85;;;;;;;20.90;82.98;97974.41;4874427;29;20052;-73
2022/08/19 11:43:28;;;;;;;25.30;19.55;;;;;;;20.96;83.87;97964.59;4876322;29;20065;-73
2022/08/19 11:45:55;;;;;;;22.98;20.13;;;;;;;20.83;83.53;97962.94;4877259;29;20049;-73
2022/08/19 11:48:22;;;;;;;22.70;19.40;;;;;;;20.60;84.17;97966.41;4881560;29;20057;-73
2022/08/19 11:50:50;;;;;;;21.63;19.00;;;;;;;20.46;84.95;97972.97;4879754;29;20500;-73
2022/08/19 11:53:19;;;;;;;23.77;19.98;;;;;;;20.27;85.32;97967.66;4874651;29;20666;-73
2022/08/19 11:55:46;;;;;;;20.35;18.35;;;;;;;20.34;86.25;97968.41;4878900;29;20056;-73